Time;durP1;ratioP1;P1;durP2;ratioP2;P2;SDS_P1;SDS_P2;PMS_P1;PMS_P2;Temp;Humidity;BMP_temperature;BMP_pressure;BME280_temperature;BME280_humidity;BME280_pressure;Samples;Min_cycle;Max_cycle;Signal;HPM_P1;HPM_P2
2021/12/14 00:01:57;;;;;;;26.13;18.77;;;4.10;99.90;;;;;;6202766;28;20469;-64
2021/12/14 00:05:01;;;;;;;21.17;15.03;;;4.10;99.90;;;;;;6203218;28;20465;-65
2021/12/14 00:08:05;;;;;;;19.80;16.77;;;4.00;99.90;;;;;;6203888;28;20480;-65
2021/12/14 00:11:27;;;;;;;19.13;15.20;;;4.00;99.90;;;;;;6202712;28;20476;-64
2021/12/14 00:17:52;;;;;;;18.10;14.30;;;3.90;99.90;;;;;;6202708;28;20480;-65
2021/12/14 00:20:58;;;;;;;20.00;14.20;;;3.90;99.90;;;;;;6203548;28;20488;-65
2021/12/14 00:24:10;;;;;;;16.30;13.33;;;3.90;99.90;;;;;;6203637;28;20488;-65
2021/12/14 00:27:14;;;;;;;15.90;13.60;;;3.90;99.90;;;;;;6203304;28;20476;-66
2021/12/14 00:30:19;;;;;;;15.37;12.40;;;3.80;99.90;;;;;;6203162;28;20489;-66
2021/12/14 00:33:27;;;;;;;17.93;14.10;;;3.80;99.90;;;;;;6195682;28;21042;-65
2021/12/14 00:36:30;;;;;;;14.10;12.80;;;3.80;99.90;;;;;;6204405;28;20481;-65
2021/12/14 00:39:34;;;;;;;19.23;14.00;;;3.80;99.90;;;;;;6201963;28;20913;-65
2021/12/14 00:42:37;;;;;;;16.33;13.40;;;3.80;99.90;;;;;;6202404;28;20469;-65
2021/12/14 00:45:44;;;;;;;16.40;14.20;;;3.70;99.90;;;;;;6202429;28;20499;-65
2021/12/14 00:48:49;;;;;;;13.43;12.03;;;3.80;99.90;;;;;;6202435;28;20434;-65
2021/12/14 00:51:54;;;;;;;15.87;13.23;;;3.70;99.90;;;;;;6202394;28;20465;-65
2021/12/14 00:54:57;;;;;;;13.43;11.90;;;3.70;99.90;;;;;;6202177;28;20472;-65
2021/12/14 00:58:00;;;;;;;12.33;11.13;;;3.70;99.90;;;;;;6201997;28;20468;-65
2021/12/14 01:01:09;;;;;;;12.83;11.03;;;3.70;99.90;;;;;;6203113;28;20587;-64
2021/12/14 01:04:16;;;;;;;13.17;10.00;;;3.70;99.90;;;;;;6202571;28;20540;-65
2021/12/14 01:07:23;;;;;;;14.87;11.00;;;3.70;99.90;;;;;;6206028;28;20484;-65
2021/12/14 01:10:29;;;;;;;12.60;11.10;;;3.70;99.90;;;;;;6217000;28;20483;-65
2021/12/14 01:13:37;;;;;;;14.90;11.70;;;3.70;99.90;;;;;;6208355;28;20484;-66
2021/12/14 01:16:52;;;;;;;11.53;9.80;;;3.70;99.90;;;;;;6203830;28;20476;-65
2021/12/14 01:19:59;;;;;;;12.57;10.17;;;3.80;99.90;;;;;;6202588;28;21023;-65
2021/12/14 01:23:13;;;;;;;11.13;9.90;;;3.70;99.90;;;;;;6206569;28;20480;-66
2021/12/14 01:26:20;;;;;;;12.60;10.13;;;3.70;99.90;;;;;;6209284;28;20999;-66
2021/12/14 01:29:23;;;;;;;10.33;9.13;;;3.70;99.90;;;;;;6204508;28;20547;-67
2021/12/14 01:32:30;;;;;;;11.67;9.30;;;3.70;99.90;;;;;;6205586;28;20488;-66
2021/12/14 01:35:36;;;;;;;10.00;9.00;;;3.70;99.90;;;;;;6193422;28;20492;-65
2021/12/14 01:38:47;;;;;;;10.73;9.20;;;3.70;99.90;;;;;;6202672;28;20476;-62
2021/12/14 01:41:55;;;;;;;12.73;9.67;;;3.70;99.90;;;;;;6200866;28;20485;-61
2021/12/14 01:45:03;;;;;;;9.27;8.40;;;3.70;99.90;;;;;;6200960;28;20955;-61
2021/12/14 01:48:08;;;;;;;12.80;8.97;;;3.70;99.90;;;;;;6200925;28;20516;-61
2021/12/14 01:51:12;;;;;;;15.53;8.63;;;3.70;99.90;;;;;;6200893;28;20476;-63
2021/12/14 01:54:19;;;;;;;10.23;8.23;;;3.60;99.90;;;;;;6200553;28;20476;-61
2021/12/14 01:57:24;;;;;;;10.47;8.70;;;3.60;99.90;;;;;;6200987;28;20468;-66
2021/12/14 02:00:33;;;;;;;12.10;9.50;;;3.70;99.90;;;;;;6201183;28;20492;-62
2021/12/14 02:03:42;;;;;;;9.77;8.10;;;3.70;99.90;;;;;;6200802;28;20484;-61
2021/12/14 02:06:57;;;;;;;11.23;8.20;;;3.60;99.90;;;;;;6201312;28;20464;-65
2021/12/14 02:10:05;;;;;;;14.63;9.47;;;3.60;99.90;;;;;;6206009;28;20796;-64
2021/12/14 02:13:08;;;;;;;11.53;8.10;;;3.70;99.90;;;;;;6205089;28;20766;-65
2021/12/14 02:16:15;;;;;;;9.00;7.93;;;3.70;99.90;;;;;;6202475;28;20465;-62
2021/12/14 02:19:30;;;;;;;13.60;7.37;;;3.70;99.90;;;;;;6204003;28;20568;-65
2021/12/14 02:22:35;;;;;;;9.77;7.73;;;3.70;99.90;;;;;;6204421;28;20519;-65
2021/12/14 02:25:39;;;;;;;9.27;7.00;;;3.60;99.90;;;;;;6204885;28;20465;-60
2021/12/14 02:28:42;;;;;;;9.80;7.60;;;3.60;99.90;;;;;;6205363;28;20472;-61
2021/12/14 02:35:42;;;;;;;9.90;8.57;;;3.50;99.90;;;;;;5910885;23;22703;-62
2021/12/14 02:38:53;;;;;;;13.23;7.17;;;3.50;99.90;;;;;;6176972;28;20488;-60
2021/12/14 02:41:58;;;;;;;9.73;8.20;;;3.50;99.90;;;;;;6180687;28;20485;-61
2021/12/14 02:45:01;;;;;;;9.13;8.13;;;3.40;99.90;;;;;;6180715;28;20957;-60
2021/12/14 02:48:08;;;;;;;11.60;8.50;;;3.40;99.90;;;;;;6181243;28;20987;-61
2021/12/14 02:51:17;;;;;;;16.30;9.23;;;3.40;99.90;;;;;;6185283;28;20484;-61
2021/12/14 02:54:24;;;;;;;9.13;7.70;;;3.40;99.90;;;;;;6204800;28;20477;-61
2021/12/14 02:57:30;;;;;;;11.10;8.30;;;3.30;99.90;;;;;;6204757;28;20477;-62
2021/12/14 03:00:37;;;;;;;11.00;8.80;;;3.30;99.90;;;;;;6204385;28;20905;-62
2021/12/14 03:03:41;;;;;;;11.20;8.80;;;3.30;99.90;;;;;;6185237;28;20458;-61
2021/12/14 03:06:49;;;;;;;12.03;9.00;;;3.30;99.90;;;;;;6180525;28;20924;-61
2021/12/14 03:09:59;;;;;;;9.53;8.63;;;3.20;99.90;;;;;;6191551;28;20478;-61
2021/12/14 03:13:06;;;;;;;10.57;8.00;;;3.20;99.90;;;;;;6229020;28;20471;-62
2021/12/14 03:16:14;;;;;;;11.13;7.97;;;3.10;99.90;;;;;;6228687;28;20591;-62
2021/12/14 03:19:18;;;;;;;9.50;8.53;;;3.10;99.90;;;;;;6229203;28;20529;-61
2021/12/14 03:22:26;;;;;;;13.13;8.17;;;3.10;99.90;;;;;;6229264;28;20490;-61
2021/12/14 03:25:31;;;;;;;17.37;7.33;;;3.10;99.90;;;;;;6228483;28;20468;-62
2021/12/14 03:28:36;;;;;;;12.03;7.83;;;3.00;99.90;;;;;;6227793;28;20472;-61
2021/12/14 03:31:43;;;;;;;11.60;9.27;;;3.00;99.90;;;;;;6228249;28;20494;-61
2021/12/14 03:34:46;;;;;;;8.00;6.90;;;3.00;99.90;;;;;;6228973;28;20542;-61
2021/12/14 03:37:52;;;;;;;12.03;7.70;;;3.00;99.90;;;;;;6209730;28;20959;-61
2021/12/14 03:41:06;;;;;;;9.83;7.00;;;3.00;99.90;;;;;;6203460;28;20959;-62
2021/12/14 03:44:14;;;;;;;9.57;6.90;;;3.00;99.90;;;;;;6189998;28;20500;-62
2021/12/14 03:47:22;;;;;;;8.13;6.80;;;3.00;99.90;;;;;;6203656;28;20477;-61
2021/12/14 03:50:29;;;;;;;6.90;5.87;;;3.00;99.90;;;;;;6203981;28;20485;-61
2021/12/14 03:53:33;;;;;;;8.90;6.63;;;3.00;99.90;;;;;;6203538;28;20473;-61
2021/12/14 03:56:38;;;;;;;9.00;6.27;;;3.00;99.90;;;;;;6203621;28;20999;-61
2021/12/14 03:59:43;;;;;;;8.50;6.20;;;2.90;99.90;;;;;;6203644;28;20491;-61
2021/12/14 04:02:48;;;;;;;7.57;6.17;;;2.80;99.90;;;;;;6203432;28;21111;-61
2021/12/14 04:05:52;;;;;;;10.60;7.10;;;2.90;99.90;;;;;;6203555;28;20491;-61
2021/12/14 04:08:55;;;;;;;7.97;6.47;;;2.80;99.90;;;;;;6203103;28;20980;-62
2021/12/14 04:12:00;;;;;;;9.07;6.70;;;2.90;99.90;;;;;;6225674;28;20507;-62
2021/12/14 04:15:05;;;;;;;7.90;6.50;;;2.90;99.90;;;;;;6227360;28;20484;-61
2021/12/14 04:18:09;;;;;;;10.37;6.83;;;2.90;99.90;;;;;;6227463;28;20475;-61
2021/12/14 04:21:12;;;;;;;9.73;6.37;;;2.90;99.90;;;;;;6227656;28;20468;-61
2021/12/14 04:24:20;;;;;;;9.53;5.87;;;2.90;99.90;;;;;;6226718;28;20480;-62
2021/12/14 04:27:27;;;;;;;10.10;6.30;;;3.00;99.90;;;;;;6226469;28;20464;-62
2021/12/14 04:30:31;;;;;;;9.33;6.47;;;3.10;99.90;;;;;;6226722;28;20476;-62
2021/12/14 04:33:38;;;;;;;7.87;5.80;;;3.10;99.90;;;;;;6226590;28;20974;-62
2021/12/14 04:36:44;;;;;;;6.53;5.60;;;3.10;99.90;;;;;;6217481;28;20547;-62
2021/12/14 04:39:53;;;;;;;6.60;5.77;;;3.10;99.90;;;;;;6201811;28;20445;-62
2021/12/14 04:53:33;;;;;;;12.77;6.23;;;3.10;99.90;;;;;;6201705;28;20480;-62
2021/12/14 04:56:39;;;;;;;6.73;5.67;;;3.10;99.90;;;;;;6202024;28;20531;-62
2021/12/14 04:59:44;;;;;;;6.30;5.43;;;3.10;99.90;;;;;;6202018;28;20511;-62
2021/12/14 05:02:48;;;;;;;6.23;5.00;;;3.00;99.90;;;;;;6201873;28;20842;-62
2021/12/14 05:06:08;;;;;;;6.67;5.97;;;3.10;99.90;;;;;;6201877;28;20479;-62
2021/12/14 05:09:22;;;;;;;9.60;5.90;;;3.10;99.90;;;;;;6201858;28;20473;-62
2021/12/14 05:12:28;;;;;;;5.83;5.30;;;3.00;99.90;;;;;;6225698;28;21002;-62
2021/12/14 05:15:36;;;;;;;10.80;5.70;;;3.00;99.90;;;;;;6225821;28;20480;-63
2021/12/14 05:18:46;;;;;;;6.57;4.97;;;3.00;99.90;;;;;;6226361;28;20448;-63
2021/12/14 05:21:50;;;;;;;7.40;5.70;;;3.00;99.90;;;;;;6226414;28;20436;-62
2021/12/14 05:25:00;;;;;;;7.00;6.10;;;2.90;99.90;;;;;;6225688;28;20464;-63
2021/12/14 05:28:05;;;;;;;7.93;6.50;;;2.90;99.90;;;;;;6225582;28;20975;-63
2021/12/14 05:31:09;;;;;;;8.73;7.60;;;2.90;99.90;;;;;;6225827;28;20488;-63
2021/12/14 05:34:13;;;;;;;9.87;5.97;;;2.90;99.90;;;;;;6225353;28;20778;-63
2021/12/14 05:37:20;;;;;;;7.87;7.10;;;2.90;99.90;;;;;;6214951;28;20477;-63
2021/12/14 05:40:41;;;;;;;8.20;6.50;;;2.80;99.90;;;;;;6201197;28;20842;-64
2021/12/14 05:43:43;;;;;;;6.40;5.70;;;2.80;99.90;;;;;;6201183;28;20469;-64
2021/12/14 05:46:51;;;;;;;8.10;5.93;;;2.70;99.90;;;;;;6201053;28;20479;-64
2021/12/14 05:49:54;;;;;;;9.87;6.80;;;2.70;99.90;;;;;;6196006;28;20477;-63
2021/12/14 05:52:57;;;;;;;7.83;5.80;;;2.70;99.90;;;;;;6200837;28;20836;-64
2021/12/14 05:56:06;;;;;;;7.60;6.87;;;2.80;99.90;;;;;;6201122;28;20929;-64
2021/12/14 05:59:10;;;;;;;8.07;5.80;;;2.70;99.90;;;;;;6201019;28;20789;-64
2021/12/14 06:02:15;;;;;;;7.83;5.60;;;2.70;99.90;;;;;;6201213;28;20469;-63
2021/12/14 06:05:21;;;;;;;7.83;6.40;;;2.70;99.90;;;;;;6201330;28;20956;-63
2021/12/14 06:08:26;;;;;;;11.83;7.63;;;2.70;99.90;;;;;;6201343;28;20477;-63
2021/12/14 06:11:29;;;;;;;7.47;6.47;;;2.70;99.90;;;;;;6200968;28;20481;-63
2021/12/14 06:14:33;;;;;;;7.10;6.40;;;2.70;99.90;;;;;;6200721;28;20484;-63
2021/12/14 06:17:39;;;;;;;6.80;6.07;;;2.70;99.90;;;;;;6200941;28;20488;-62
2021/12/14 06:20:44;;;;;;;9.87;7.57;;;2.70;99.90;;;;;;6200846;28;20552;-63
2021/12/14 06:23:47;;;;;;;6.90;6.30;;;2.80;99.90;;;;;;6200802;28;20476;-63
2021/12/14 06:26:55;;;;;;;9.33;8.43;;;2.80;99.90;;;;;;6200695;28;20476;-63
2021/12/14 06:30:01;;;;;;;13.00;9.13;;;2.70;99.90;;;;;;6200899;28;20476;-63
2021/12/14 06:33:08;;;;;;;11.30;9.50;;;2.60;99.90;;;;;;6200857;28;20477;-63
2021/12/14 06:36:52;;;;;;;10.07;8.90;;;2.60;99.90;;;;;;6200448;28;20496;-63
2021/12/14 06:40:03;;;;;;;10.47;7.80;;;2.60;99.90;;;;;;6200734;28;20484;-63
2021/12/14 06:43:10;;;;;;;8.10;7.30;;;2.60;99.90;;;;;;6201035;28;20477;-63
2021/12/14 06:46:16;;;;;;;7.73;6.93;;;2.70;99.90;;;;;;6200888;28;20484;-63
2021/12/14 06:49:21;;;;;;;8.37;6.13;;;2.70;99.90;;;;;;6200901;28;20469;-63
2021/12/14 06:52:25;;;;;;;7.77;6.73;;;2.70;99.90;;;;;;6200794;28;20476;-63
2021/12/14 06:55:29;;;;;;;8.20;6.67;;;2.70;99.90;;;;;;6200909;28;20480;-64
2021/12/14 06:58:34;;;;;;;10.40;8.13;;;2.70;99.90;;;;;;6200613;28;20560;-64
2021/12/14 07:01:39;;;;;;;10.13;8.50;;;2.70;99.90;;;;;;6201357;28;20469;-64
2021/12/14 07:04:48;;;;;;;8.80;7.47;;;2.80;99.90;;;;;;6204888;28;20563;-63
2021/12/14 07:07:52;;;;;;;9.70;7.70;;;2.70;99.90;;;;;;6204828;28;20803;-63
2021/12/14 07:10:56;;;;;;;10.20;8.63;;;2.70;99.90;;;;;;6218607;28;20486;-63
2021/12/14 07:14:00;;;;;;;11.37;8.20;;;2.80;99.90;;;;;;6229140;28;20478;-64
2021/12/14 07:17:11;;;;;;;10.30;8.60;;;2.80;99.90;;;;;;6228940;28;20984;-64
2021/12/14 07:20:28;;;;;;;12.40;8.50;;;2.80;99.90;;;;;;6228753;28;20534;-63
2021/12/14 07:23:34;;;;;;;12.20;9.20;;;2.90;99.90;;;;;;6228407;28;20468;-63
2021/12/14 07:26:37;;;;;;;12.13;9.03;;;2.90;99.90;;;;;;6228519;28;20991;-64
2021/12/14 07:29:40;;;;;;;10.03;8.40;;;3.00;99.90;;;;;;6229180;28;20495;-63
2021/12/14 07:32:48;;;;;;;9.10;8.10;;;3.00;99.90;;;;;;6229036;28;20480;-63
2021/12/14 07:35:56;;;;;;;10.50;7.73;;;3.00;99.90;;;;;;6228581;28;20480;-63
2021/12/14 07:39:01;;;;;;;9.30;6.80;;;3.00;99.90;;;;;;6179606;28;20477;-63
2021/12/14 07:42:05;;;;;;;9.67;8.50;;;3.10;99.90;;;;;;6180371;28;20470;-64
2021/12/14 07:45:09;;;;;;;11.33;9.93;;;3.10;99.90;;;;;;6179609;28;20480;-64
2021/12/14 07:48:13;;;;;;;16.33;10.70;;;3.20;99.90;;;;;;6179789;28;20474;-64
2021/12/14 07:51:22;;;;;;;13.93;9.63;;;3.20;99.90;;;;;;6178879;28;20488;-64
2021/12/14 07:54:28;;;;;;;10.97;8.67;;;3.20;99.90;;;;;;6179178;28;20486;-64
2021/12/14 07:57:36;;;;;;;13.43;9.93;;;3.30;99.90;;;;;;6173973;28;20580;-64
2021/12/14 08:00:42;;;;;;;10.90;7.43;;;3.30;99.90;;;;;;6180287;28;20450;-64
2021/12/14 08:03:46;;;;;;;9.03;7.23;;;3.30;99.90;;;;;;6179156;28;20453;-63
2021/12/14 08:06:54;;;;;;;12.73;7.63;;;3.40;99.90;;;;;;6178951;28;20438;-63
2021/12/14 08:10:07;;;;;;;7.40;6.10;;;3.40;99.90;;;;;;6190061;28;20844;-64
2021/12/14 08:13:14;;;;;;;8.80;7.90;;;3.50;99.90;;;;;;6226058;28;20814;-64
2021/12/14 08:16:17;;;;;;;7.60;6.70;;;3.60;99.90;;;;;;6226573;28;20484;-63
2021/12/14 08:19:33;;;;;;;9.50;6.67;;;3.60;99.90;;;;;;6212093;28;20885;-61
2021/12/14 08:22:40;;;;;;;7.77;7.13;;;3.70;99.90;;;;;;6202602;28;20812;-65
2021/12/14 08:25:44;;;;;;;7.93;5.97;;;3.70;99.90;;;;;;6202831;28;20477;-65
2021/12/14 08:28:49;;;;;;;9.93;6.80;;;3.70;99.90;;;;;;6203102;28;20468;-66
2021/12/14 08:31:55;;;;;;;8.47;6.20;;;3.90;99.90;;;;;;6203068;28;20476;-65
2021/12/14 08:35:01;;;;;;;8.47;7.67;;;3.90;99.90;;;;;;6202196;28;20472;-65
2021/12/14 08:38:06;;;;;;;11.17;8.07;;;4.10;99.90;;;;;;6202570;28;20489;-65
2021/12/14 08:41:16;;;;;;;8.40;6.90;;;4.30;99.90;;;;;;6202477;28;20479;-66
2021/12/14 08:44:34;;;;;;;8.57;6.90;;;4.40;99.90;;;;;;6199508;28;20473;-66
2021/12/14 08:47:40;;;;;;;9.10;7.53;;;4.60;99.90;;;;;;6190925;28;20465;-66
2021/12/14 08:50:53;;;;;;;10.00;7.70;;;4.80;99.90;;;;;;6198068;28;20549;-66
2021/12/14 08:54:03;;;;;;;10.20;8.03;;;4.90;99.90;;;;;;6191982;28;20491;-66
2021/12/14 08:57:13;;;;;;;10.30;8.20;;;5.10;99.90;;;;;;6202840;28;20487;-65
2021/12/14 09:00:21;;;;;;;9.00;7.40;;;5.20;99.90;;;;;;6202883;28;20576;-65
2021/12/14 09:03:32;;;;;;;7.70;6.90;;;5.30;99.90;;;;;;6201641;28;20543;-65
2021/12/14 09:06:38;;;;;;;9.80;7.90;;;5.50;99.90;;;;;;6201596;28;20465;-65
2021/12/14 09:09:44;;;;;;;8.90;7.43;;;5.60;99.90;;;;;;6206394;28;20449;-65
2021/12/14 09:12:49;;;;;;;8.50;7.60;;;5.80;99.90;;;;;;6226289;28;20482;-65
2021/12/14 09:15:57;;;;;;;6.93;6.33;;;6.00;99.90;;;;;;6226916;28;20436;-65
2021/12/14 09:19:07;;;;;;;7.00;6.27;;;6.20;99.90;;;;;;6222075;28;20468;-65
2021/12/14 09:22:17;;;;;;;7.00;5.70;;;6.40;99.90;;;;;;6195519;28;20479;-62
2021/12/14 09:25:26;;;;;;;8.03;6.07;;;6.60;99.90;;;;;;6191028;28;20477;-63
2021/12/14 09:28:30;;;;;;;6.30;5.40;;;6.80;99.90;;;;;;6189242;28;20473;-63
2021/12/14 09:31:37;;;;;;;18.93;13.07;;;6.90;99.90;;;;;;6185639;28;20814;-63
2021/12/14 09:34:43;;;;;;;18.43;14.43;;;7.10;99.90;;;;;;6177596;28;20485;-64
2021/12/14 09:37:47;;;;;;;21.47;15.83;;;7.20;99.90;;;;;;6183830;28;20477;-61
2021/12/14 09:40:55;;;;;;;19.30;15.73;;;7.30;99.90;;;;;;6201129;28;20495;-63
2021/12/14 09:44:08;;;;;;;17.40;13.33;;;7.40;99.90;;;;;;6200877;28;20473;-63
2021/12/14 09:47:15;;;;;;;10.70;7.20;;;7.60;99.60;;;;;;6201512;28;20487;-61
2021/12/14 09:50:23;;;;;;;5.97;5.37;;;7.80;99.70;;;;;;6200762;28;20477;-62
2021/12/14 09:53:28;;;;;;;10.27;6.90;;;7.80;99.80;;;;;;6196754;28;20483;-62
2021/12/14 09:56:37;;;;;;;8.27;7.37;;;7.90;99.90;;;;;;6200970;28;20472;-67
2021/12/14 09:59:41;;;;;;;10.97;8.53;;;8.10;99.90;;;;;;6201127;28;20476;-61
2021/12/14 10:02:52;;;;;;;8.90;7.30;;;8.30;99.90;;;;;;6193653;28;20484;-63
2021/12/14 10:05:59;;;;;;;9.27;7.27;;;8.50;99.30;;;;;;6167422;28;21010;-61
2021/12/14 10:09:10;;;;;;;8.30;7.03;;;8.70;99.10;;;;;;6176464;28;20548;-61
2021/12/14 10:12:41;;;;;;;11.70;7.97;;;8.90;98.50;;;;;;6176805;28;20484;-65
2021/12/14 10:15:47;;;;;;;8.20;6.90;;;9.20;98.60;;;;;;6176720;28;20792;-63
2021/12/14 10:18:54;;;;;;;13.93;7.63;;;9.50;98.00;;;;;;6179376;28;20480;-64
2021/12/14 10:21:59;;;;;;;11.30;8.80;;;9.70;97.30;;;;;;6201162;28;20461;-64
2021/12/14 10:25:07;;;;;;;9.20;6.80;;;9.90;97.00;;;;;;6201154;28;20472;-63
2021/12/14 10:28:12;;;;;;;8.37;7.57;;;10.10;96.00;;;;;;6200431;28;20822;-68
2021/12/14 10:31:25;;;;;;;11.70;6.67;;;10.20;95.50;;;;;;6201121;28;20480;-67
2021/12/14 10:34:31;;;;;;;16.90;11.90;;;10.30;95.30;;;;;;6200104;28;20488;-65
2021/12/14 10:37:53;;;;;;;20.43;13.60;;;10.40;94.60;;;;;;6201828;28;20476;-64
2021/12/14 10:44:27;;;;;;;21.90;15.03;;;10.60;93.40;;;;;;6194536;28;20482;-66
2021/12/14 10:47:32;;;;;;;16.03;13.77;;;10.70;93.10;;;;;;6192967;28;20469;-64
2021/12/14 10:50:38;;;;;;;18.47;14.37;;;10.80;93.10;;;;;;6204593;28;20927;-62
2021/12/14 10:53:46;;;;;;;15.57;12.53;;;11.00;92.70;;;;;;6181252;28;20511;-62
2021/12/14 10:57:13;;;;;;;10.97;8.33;;;11.10;92.40;;;;;;6194069;28;20548;-62
2021/12/14 11:00:29;;;;;;;19.10;13.57;;;11.20;92.40;;;;;;6204975;28;20484;-63
2021/12/14 11:03:36;;;;;;;14.53;12.03;;;11.30;92.20;;;;;;6204776;28;20536;-64
2021/12/14 11:06:44;;;;;;;20.23;15.40;;;11.40;91.50;;;;;;6180600;28;20464;-64
2021/12/14 11:09:52;;;;;;;21.60;16.90;;;11.50;91.30;;;;;;6185553;28;20449;-64
2021/12/14 11:13:00;;;;;;;22.23;17.23;;;11.70;91.30;;;;;;6190985;28;20445;-64
2021/12/14 11:16:14;;;;;;;20.90;14.20;;;12.60;90.30;;;;;;6193617;28;20484;-64
2021/12/14 11:19:17;;;;;;;22.20;15.67;;;13.70;86.70;;;;;;6199645;28;20469;-63
2021/12/14 11:22:25;;;;;;;21.70;17.00;;;13.70;82.30;;;;;;6199257;28;20469;-63
2021/12/14 11:25:31;;;;;;;25.20;17.23;;;13.60;81.90;;;;;;6184678;28;20531;-65
2021/12/14 11:28:37;;;;;;;19.17;14.87;;;13.50;82.10;;;;;;6197720;28;20543;-66
2021/12/14 11:31:47;;;;;;;20.67;14.77;;;14.60;82.40;;;;;;6204328;28;20481;-65
2021/12/14 11:34:50;;;;;;;18.57;15.30;;;17.20;74.20;;;;;;6203916;28;20469;-65
2021/12/14 11:37:55;;;;;;;18.27;16.40;;;20.10;62.00;;;;;;6203394;28;20828;-66
2021/12/14 11:41:00;;;;;;;21.83;17.47;;;22.10;53.10;;;;;;6204033;28;20240;-66
2021/12/14 11:44:13;;;;;;;21.53;15.97;;;23.30;46.60;;;;;;6205782;28;20237;-66
2021/12/14 11:50:45;;;;;;;21.30;17.33;;;25.70;40.30;;;;;;6203466;28;20237;-67
2021/12/14 11:53:51;;;;;;;19.57;17.50;;;27.00;36.50;;;;;;6203288;28;20233;-65
2021/12/14 11:56:55;;;;;;;17.70;15.90;;;26.90;35.10;;;;;;6191407;28;20237;-65
2021/12/14 12:00:01;;;;;;;18.40;16.57;;;25.30;36.10;;;;;;6181978;28;20650;-65
2021/12/14 12:03:25;;;;;;;20.07;17.87;;;23.50;37.80;;;;;;6191100;28;20242;-65
2021/12/14 12:10:00;;;;;;;20.70;16.50;;;21.70;40.50;;;;;;6181619;28;20230;-64
2021/12/14 12:13:03;;;;;;;25.63;18.47;;;20.60;42.30;;;;;;6178994;28;20230;-64
2021/12/14 12:16:16;;;;;;;23.83;18.03;;;19.50;44.10;;;;;;6178592;28;20570;-62
2021/12/14 12:19:24;;;;;;;22.60;18.00;;;18.50;45.60;;;;;;6185144;28;20233;-64
2021/12/14 12:22:32;;;;;;;22.37;18.13;;;17.80;47.60;;;;;;6202877;28;20465;-64
2021/12/14 12:25:39;;;;;;;28.17;17.20;;;18.10;48.30;;;;;;6202900;28;21019;-65
2021/12/14 12:28:46;;;;;;;20.93;17.50;;;19.00;47.30;;;;;;6198149;28;20468;-68
2021/12/14 12:31:58;;;;;;;23.17;18.03;;;20.00;46.00;;;;;;6181229;28;20693;-65
2021/12/14 12:35:19;;;;;;;21.63;19.30;;;21.00;44.90;;;;;;6178369;28;20241;-64
2021/12/14 12:38:33;;;;;;;19.20;17.30;;;22.00;42.20;;;;;;6177695;28;20241;-66
2021/12/14 12:41:44;;;;;;;20.77;17.93;;;22.60;41.30;;;;;;6177939;28;20230;-63
2021/12/14 12:44:52;;;;;;;20.07;15.97;;;23.50;40.10;;;;;;6178629;28;20655;-66
2021/12/14 12:47:56;;;;;;;20.50;18.30;;;23.60;38.90;;;;;;6180775;28;20226;-63
2021/12/14 12:51:00;;;;;;;19.93;17.83;;;23.60;39.50;;;;;;6178365;28;20261;-64
2021/12/14 12:54:17;;;;;;;20.53;15.23;;;24.00;38.70;;;;;;6183741;28;20239;-67
2021/12/14 12:57:36;;;;;;;22.13;18.33;;;25.10;37.70;;;;;;6194078;28;20225;-64
2021/12/14 13:00:44;;;;;;;19.43;17.63;;;25.80;36.00;;;;;;6177199;28;20542;-64
2021/12/14 13:04:07;;;;;;;19.20;16.57;;;24.70;36.20;;;;;;6197805;28;20252;-64
2021/12/14 13:07:12;;;;;;;19.00;15.17;;;22.80;38.20;;;;;;6202489;28;20677;-64
2021/12/14 13:10:22;;;;;;;19.40;16.20;;;21.60;41.20;;;;;;6202914;28;20233;-64
2021/12/14 13:13:28;;;;;;;15.47;14.07;;;22.00;41.10;;;;;;6174092;28;20249;-64
2021/12/14 13:16:33;;;;;;;19.07;13.13;;;22.60;40.30;;;;;;6178938;28;20238;-64
2021/12/14 13:19:36;;;;;;;14.80;13.23;;;22.90;39.70;;;;;;6186262;28;20236;-64
2021/12/14 13:22:49;;;;;;;20.23;12.80;;;22.40;39.40;;;;;;6201467;28;20576;-63
2021/12/14 13:25:52;;;;;;;14.67;13.00;;;21.20;40.90;;;;;;6201986;28;20233;-63
2021/12/14 13:29:00;;;;;;;16.47;12.40;;;20.20;43.40;;;;;;6201712;28;20242;-63
2021/12/14 13:32:10;;;;;;;14.57;9.67;;;20.50;43.60;;;;;;6201633;28;20237;-64
2021/12/14 13:35:19;;;;;;;12.23;10.20;;;21.30;43.20;;;;;;6201246;28;20253;-64
2021/12/14 13:38:24;;;;;;;11.90;9.90;;;22.60;41.20;;;;;;6200884;28;20311;-64
2021/12/14 13:41:47;;;;;;;12.23;10.87;;;23.80;40.40;;;;;;6201700;28;20236;-63
2021/12/14 13:44:53;;;;;;;12.87;10.43;;;24.10;38.30;;;;;;6201219;28;20230;-64
2021/12/14 13:47:58;;;;;;;11.93;9.30;;;24.30;37.80;;;;;;6200873;28;20237;-64
2021/12/14 13:51:09;;;;;;;10.53;9.13;;;24.30;37.90;;;;;;6200654;28;20755;-64
2021/12/14 13:54:14;;;;;;;14.43;10.20;;;23.80;38.10;;;;;;6199255;28;20233;-63
2021/12/14 13:57:17;;;;;;;11.33;9.70;;;23.40;38.60;;;;;;6199234;28;20712;-63
2021/12/14 14:00:42;;;;;;;14.47;10.87;;;23.00;39.00;;;;;;6199218;28;20238;-63
2021/12/14 14:03:48;;;;;;;11.07;9.60;;;22.60;39.60;;;;;;6199776;28;20234;-63
2021/12/14 14:06:53;;;;;;;15.90;10.30;;;21.70;40.40;;;;;;6199288;28;20185;-62
2021/12/14 14:09:58;;;;;;;13.37;10.10;;;20.50;42.00;;;;;;6205059;28;20529;-62
2021/12/14 14:13:07;;;;;;;11.23;9.90;;;19.20;44.30;;;;;;6227697;28;20378;-63
2021/12/14 14:16:10;;;;;;;14.63;8.80;;;18.00;46.40;;;;;;6228046;28;20491;-63
2021/12/14 14:19:15;;;;;;;12.40;9.77;;;16.90;48.70;;;;;;6209694;28;20567;-63
2021/12/14 14:22:26;;;;;;;15.70;10.53;;;15.90;50.70;;;;;;6180854;28;20484;-63
2021/12/14 14:25:31;;;;;;;11.97;9.63;;;14.90;52.90;;;;;;6182099;28;20466;-62
2021/12/14 14:28:42;;;;;;;13.70;10.27;;;14.20;55.00;;;;;;6197646;28;20917;-62
2021/12/14 14:31:48;;;;;;;17.33;9.87;;;13.50;57.00;;;;;;6204636;28;20819;-62
2021/12/14 14:34:55;;;;;;;14.70;11.33;;;12.90;58.80;;;;;;6206084;28;20492;-64
2021/12/14 14:37:59;;;;;;;11.50;9.73;;;12.40;60.80;;;;;;6203613;28;20476;-63
2021/12/14 14:41:29;;;;;;;14.57;11.40;;;12.00;63.40;;;;;;6181609;28;20492;-62
2021/12/14 14:44:34;;;;;;;14.30;11.80;;;11.50;66.00;;;;;;6181203;28;20813;-61
2021/12/14 14:47:39;;;;;;;20.63;13.93;;;11.20;68.60;;;;;;6181418;28;20836;-62
2021/12/14 14:50:42;;;;;;;17.90;13.67;;;10.80;71.30;;;;;;6181177;28;20481;-62
2021/12/14 14:53:46;;;;;;;26.17;18.90;;;10.60;73.60;;;;;;6180600;28;20488;-63
2021/12/14 14:56:51;;;;;;;17.50;14.50;;;10.30;75.70;;;;;;6194525;28;20627;-62
2021/12/14 15:00:11;;;;;;;16.67;12.27;;;10.10;77.80;;;;;;6204334;28;20488;-63
2021/12/14 15:03:26;;;;;;;18.63;13.70;;;9.90;81.70;;;;;;6204160;28;20855;-62
2021/12/14 15:06:33;;;;;;;23.50;18.97;;;9.60;84.00;;;;;;6203962;28;20465;-62
2021/12/14 15:09:38;;;;;;;22.30;17.23;;;9.40;86.10;;;;;;6207940;28;20464;-62
2021/12/14 15:12:44;;;;;;;16.90;15.10;;;9.20;87.70;;;;;;6227837;28;20941;-64
2021/12/14 15:15:57;;;;;;;27.23;18.40;;;9.10;89.40;;;;;;6224794;28;20483;-65
2021/12/14 15:19:19;;;;;;;23.40;17.67;;;8.90;90.50;;;;;;6196626;28;20467;-63
2021/12/14 15:22:27;;;;;;;23.90;18.67;;;8.80;91.20;;;;;;6177537;28;20485;-64
2021/12/14 15:25:32;;;;;;;30.33;20.97;;;8.70;91.80;;;;;;6191562;28;20465;-64
2021/12/14 15:28:37;;;;;;;22.20;17.80;;;8.50;92.40;;;;;;6193740;28;20475;-64
2021/12/14 15:31:41;;;;;;;30.77;19.20;;;8.50;92.90;;;;;;6188072;28;20466;-64
2021/12/14 15:34:56;;;;;;;27.07;17.60;;;8.40;93.30;;;;;;6191023;28;20468;-64
2021/12/14 15:38:01;;;;;;;19.17;16.07;;;8.30;93.70;;;;;;6190285;28;20466;-65
2021/12/14 15:41:23;;;;;;;24.77;19.57;;;8.20;94.10;;;;;;6191968;28;20861;-63
2021/12/14 15:44:40;;;;;;;25.87;17.33;;;8.10;94.50;;;;;;6185067;28;20493;-61
2021/12/14 15:48:02;;;;;;;24.30;17.37;;;8.00;94.80;;;;;;6186512;28;20783;-62
2021/12/14 15:51:21;;;;;;;20.90;15.23;;;8.00;95.30;;;;;;6203682;28;20480;-62
2021/12/14 15:54:31;;;;;;;19.73;13.83;;;7.90;95.40;;;;;;6202933;28;20470;-62
2021/12/14 15:57:34;;;;;;;20.93;15.20;;;7.80;95.70;;;;;;6203156;28;20511;-62
2021/12/14 16:00:39;;;;;;;17.00;15.03;;;7.70;96.00;;;;;;6203144;28;20475;-62
2021/12/14 16:03:44;;;;;;;43.87;26.40;;;7.70;96.10;;;;;;6203403;28;20480;-59
2021/12/14 16:06:50;;;;;;;34.40;20.17;;;7.50;96.40;;;;;;6203282;28;20441;-61
2021/12/14 16:10:03;;;;;;;23.00;15.73;;;7.40;96.70;;;;;;6208815;28;20433;-61
2021/12/14 16:16:30;;;;;;;18.93;14.17;;;7.20;97.40;;;;;;6226981;28;20469;-62
2021/12/14 16:19:33;;;;;;;18.43;13.90;;;7.10;97.90;;;;;;6198915;28;20798;-62
2021/12/14 16:22:38;;;;;;;15.87;13.23;;;7.00;98.00;;;;;;6178527;28;20465;-61
2021/12/14 16:25:44;;;;;;;18.90;13.23;;;7.00;98.30;;;;;;6173795;28;20496;-62
2021/12/14 16:28:50;;;;;;;17.20;14.30;;;6.80;98.60;;;;;;6198438;28;20979;-62
2021/12/14 16:31:54;;;;;;;17.97;14.80;;;6.70;98.60;;;;;;6202757;28;20977;-61
2021/12/14 16:34:57;;;;;;;16.70;13.47;;;6.60;98.80;;;;;;6202234;28;20480;-61
2021/12/14 16:38:03;;;;;;;17.50;12.70;;;6.50;99.10;;;;;;6202165;28;20476;-61
2021/12/14 16:41:09;;;;;;;17.10;14.00;;;6.40;99.50;;;;;;6201783;28;20486;-64
2021/12/14 16:44:14;;;;;;;14.47;12.43;;;6.30;99.80;;;;;;6200908;28;20477;-65